Time;durP1;ratioP1;P1;durP2;ratioP2;P2;SDS_P1;SDS_P2;PMS_P1;PMS_P2;Temp;Humidity;BMP_temperature;BMP_pressure;BME280_temperature;BME280_humidity;BME280_pressure;Samples;Min_cycle;Max_cycle;Signal;HPM_P1;HPM_P2
2024/04/06 00:02:17;;;;;;;3.40;0.75;;;15.20;92.90;15.10;100426.00;;;;4987748;27;83127;-65
2024/04/06 00:04:43;;;;;;;4.60;0.95;;;15.20;93.10;15.10;100431.00;;;;4983540;28;84601;-65
2024/04/06 00:07:09;;;;;;;0.80;0.45;;;15.10;93.40;15.00;100426.00;;;;4986499;27;112332;-65
2024/04/06 00:09:36;;;;;;;0.68;0.60;;;15.10;93.60;15.00;100434.00;;;;4986493;27;82894;-65
2024/04/06 00:12:03;;;;;;;0.68;0.68;;;15.00;93.80;14.90;100424.00;;;;4986932;27;100814;-65
2024/04/06 00:14:29;;;;;;;2.03;0.80;;;14.90;94.00;14.90;100441.00;;;;4984093;27;102149;-65
2024/04/06 00:16:55;;;;;;;1.40;0.93;;;14.90;94.20;14.90;100440.00;;;;4985832;27;113244;-65
2024/04/06 00:19:20;;;;;;;2.95;0.70;;;14.80;94.30;14.80;100439.00;;;;4986462;27;82917;-65
2024/04/06 00:21:46;;;;;;;1.88;1.13;;;14.80;94.60;14.80;100437.00;;;;4989120;27;108962;-64
2024/04/06 00:24:12;;;;;;;1.05;0.57;;;14.80;94.80;14.80;100440.00;;;;4986163;27;86311;-65
2024/04/06 00:26:37;;;;;;;1.95;0.63;;;14.80;95.00;14.80;100439.00;;;;4982191;27;105173;-64
2024/04/06 00:29:03;;;;;;;2.17;0.82;;;14.80;95.10;14.80;100441.00;;;;4985103;27;109746;-65
2024/04/06 00:31:28;;;;;;;1.10;1.00;;;14.80;95.30;14.90;100440.00;;;;4988007;27;109390;-65
2024/04/06 00:33:56;;;;;;;0.60;0.60;;;14.90;95.60;14.90;100450.00;;;;4986616;27;111696;-66
2024/04/06 00:36:22;;;;;;;0.30;0.30;;;14.80;95.70;14.90;100444.00;;;;4986353;27;82871;-65
2024/04/06 00:38:48;;;;;;;0.75;0.40;;;14.80;95.90;14.90;100438.00;;;;4987979;27;82772;-65
2024/04/06 00:41:13;;;;;;;0.40;0.40;;;14.80;96.00;14.90;100444.00;;;;4990452;27;109535;-65
2024/04/06 00:43:39;;;;;;;1.45;0.60;;;14.80;96.20;14.90;100445.00;;;;4988287;27;112532;-65
2024/04/06 00:46:05;;;;;;;1.48;0.63;;;14.80;96.40;14.80;100449.00;;;;4984506;27;112127;-65
2024/04/06 00:48:30;;;;;;;2.88;0.70;;;14.80;96.50;14.80;100443.00;;;;4985748;28;110394;-65
2024/04/06 00:51:05;;;;;;;0.50;0.40;;;14.80;96.70;14.70;100448.00;;;;4985605;27;106371;-65
2024/04/06 00:53:32;;;;;;;0.75;0.60;;;14.70;96.80;14.70;100447.00;;;;4970509;27;83715;-65
2024/04/06 00:55:58;;;;;;;0.70;0.50;;;14.70;97.00;14.70;100446.00;;;;4983234;27;87880;-66
2024/04/06 00:58:24;;;;;;;0.50;0.50;;;14.70;97.10;14.70;100450.00;;;;4967666;27;82981;-65
2024/04/06 01:00:49;;;;;;;0.40;0.40;;;14.60;97.30;14.60;100439.00;;;;4984901;27;82988;-66
2024/04/06 01:03:15;;;;;;;0.32;0.30;;;14.60;97.40;14.60;100443.00;;;;4984371;27;112945;-66
2024/04/06 01:05:41;;;;;;;0.40;0.40;;;14.60;97.60;14.50;100436.00;;;;4986766;27;83573;-65
2024/04/06 01:08:07;;;;;;;2.67;0.93;;;14.50;97.80;14.40;100446.00;;;;4985243;27;108955;-66
2024/04/06 01:10:33;;;;;;;0.65;0.60;;;14.50;98.00;14.40;100435.00;;;;4987004;27;106633;-66
2024/04/06 01:12:59;;;;;;;2.67;1.15;;;14.40;98.10;14.30;100443.00;;;;4966861;28;83847;-67
2024/04/06 01:15:25;;;;;;;1.02;0.70;;;14.30;98.30;14.20;100436.00;;;;4967494;27;97482;-64
2024/04/06 01:17:56;;;;;;;2.95;1.10;;;14.30;98.50;14.10;100443.00;;;;4983399;27;105352;-66
2024/04/06 01:20:22;;;;;;;3.47;0.73;;;14.20;98.70;14.10;100440.00;;;;4986633;27;84546;-65
2024/04/06 01:22:48;;;;;;;6.15;0.73;;;14.10;99.00;14.00;100457.00;;;;4972816;27;111671;-65
2024/04/06 01:25:14;;;;;;;0.40;0.35;;;14.10;99.20;14.00;100451.00;;;;4967497;27;112314;-66
2024/04/06 01:27:39;;;;;;;5.47;0.68;;;14.00;99.40;13.90;100459.00;;;;4982489;27;101724;-65
2024/04/06 01:30:07;;;;;;;3.50;0.90;;;14.00;99.60;13.90;100464.00;;;;4982854;27;107921;-66
2024/04/06 01:32:32;;;;;;;0.68;0.68;;;13.90;99.80;13.90;100451.00;;;;4975586;27;83819;-66
2024/04/06 01:34:59;;;;;;;0.43;0.40;;;13.90;99.90;13.80;100459.00;;;;4963299;28;111659;-67
2024/04/06 01:37:25;;;;;;;1.23;0.45;;;13.90;99.90;13.80;100464.00;;;;4980163;27;83798;-66
2024/04/06 01:39:51;;;;;;;0.60;0.50;;;13.80;99.90;13.80;100460.00;;;;4982329;27;83951;-66
2024/04/06 01:42:17;;;;;;;0.45;0.45;;;13.80;99.90;13.80;100459.00;;;;4986516;27;94037;-66
2024/04/06 01:44:42;;;;;;;4.38;0.60;;;13.80;99.90;13.80;100467.00;;;;4984306;27;112592;-66
2024/04/06 01:47:08;;;;;;;1.20;0.70;;;13.80;99.90;13.70;100468.00;;;;4987619;27;109537;-66
2024/04/06 01:49:35;;;;;;;1.60;0.73;;;13.80;99.90;13.70;100478.00;;;;4983934;27;108751;-66
2024/04/06 01:52:00;;;;;;;1.33;0.52;;;13.70;99.90;13.70;100460.00;;;;4968716;28;84175;-66
2024/04/06 01:54:26;;;;;;;2.33;0.50;;;13.70;99.90;13.70;100463.00;;;;4981264;27;101708;-66
2024/04/06 01:56:52;;;;;;;0.93;0.82;;;13.70;99.90;13.70;100477.00;;;;4980348;27;105766;-64
2024/04/06 01:59:18;;;;;;;0.82;0.65;;;13.70;99.90;13.70;100472.00;;;;4984438;27;110126;-66
2024/04/06 02:01:44;;;;;;;0.68;0.68;;;13.70;99.90;13.70;100483.00;;;;4975528;27;111695;-64
2024/04/06 02:04:10;;;;;;;0.68;0.45;;;13.70;99.90;13.70;100485.00;;;;4988132;27;83970;-65
2024/04/06 02:06:36;;;;;;;0.40;0.40;;;13.70;99.90;13.70;100490.00;;;;4985296;27;101122;-66
2024/04/06 02:09:03;;;;;;;0.77;0.60;;;13.70;99.90;13.70;100484.00;;;;4985512;27;108884;-65
2024/04/06 02:11:29;;;;;;;0.55;0.55;;;13.70;99.90;13.70;100489.00;;;;4987830;27;83948;-65
2024/04/06 02:13:54;;;;;;;0.73;0.63;;;13.70;99.90;13.70;100483.00;;;;4979747;27;99428;-65
2024/04/06 02:16:20;;;;;;;0.50;0.50;;;13.70;99.90;13.70;100496.00;;;;4986724;27;110238;-65
2024/04/06 02:18:46;;;;;;;0.30;0.30;;;13.70;99.90;13.70;100483.00;;;;4986800;27;81975;-65
2024/04/06 02:21:11;;;;;;;0.40;0.40;;;13.70;99.90;13.70;100493.00;;;;4985155;27;111719;-65
2024/04/06 02:23:37;;;;;;;0.45;0.45;;;13.70;99.90;13.80;100493.00;;;;4984001;27;99323;-66
2024/04/06 02:26:03;;;;;;;0.38;0.35;;;13.80;99.90;13.80;100493.00;;;;4987347;27;110021;-65
2024/04/06 02:28:28;;;;;;;1.48;0.95;;;13.80;99.90;13.80;100494.00;;;;4985757;27;98495;-65
2024/04/06 02:30:54;;;;;;;0.20;0.20;;;13.80;99.90;13.80;100491.00;;;;4986628;27;113513;-66
2024/04/06 02:33:20;;;;;;;1.17;0.43;;;13.70;99.90;13.80;100499.00;;;;4983832;27;105391;-65
2024/04/06 02:35:45;;;;;;;0.50;0.50;;;13.70;99.90;13.70;100494.00;;;;4985983;27;110143;-65
2024/04/06 02:38:11;;;;;;;0.80;0.77;;;13.70;99.90;13.70;100499.00;;;;4984989;27;108278;-65
2024/04/06 02:40:37;;;;;;;1.58;1.08;;;13.70;99.90;13.70;100496.00;;;;4986335;27;110235;-65
2024/04/06 02:43:03;;;;;;;0.43;0.30;;;13.70;99.90;13.70;100489.00;;;;4989039;27;83416;-65
2024/04/06 02:45:28;;;;;;;0.30;0.30;;;13.70;99.90;13.70;100485.00;;;;4987092;27;83010;-65
2024/04/06 02:47:54;;;;;;;0.70;0.60;;;13.70;99.90;13.70;100486.00;;;;4985832;27;109889;-65
2024/04/06 02:50:20;;;;;;;1.92;1.17;;;13.70;99.90;13.70;100488.00;;;;4988524;27;84109;-66
2024/04/06 02:52:46;;;;;;;1.75;0.57;;;13.70;99.90;13.70;100494.00;;;;4988579;27;83890;-66
2024/04/06 02:55:12;;;;;;;0.50;0.50;;;13.70;99.90;13.70;100496.00;;;;4988320;27;110743;-65
2024/04/06 02:57:37;;;;;;;1.45;0.70;;;13.20;99.90;13.60;100501.00;;;;4989566;27;94550;-67
2024/04/06 03:00:04;;;;;;;0.40;0.40;;;13.70;99.90;13.60;100496.00;;;;4987718;27;82839;-66
2024/04/06 03:02:29;;;;;;;0.88;0.70;;;13.60;99.90;13.60;100496.00;;;;4988824;27;99131;-66
2024/04/06 03:04:55;;;;;;;0.80;0.63;;;13.60;99.90;13.60;100498.00;;;;4992484;27;82954;-66
2024/04/06 03:07:21;;;;;;;0.60;0.57;;;13.60;99.90;13.50;100515.00;;;;4990152;27;93091;-67
2024/04/06 03:09:46;;;;;;;0.40;0.40;;;13.50;99.90;13.50;100509.00;;;;4988139;27;112659;-66
2024/04/06 03:12:12;;;;;;;2.35;0.75;;;13.50;99.90;13.40;100506.00;;;;4990998;27;90537;-66
2024/04/06 03:14:38;;;;;;;0.37;0.37;;;13.40;99.90;13.40;100504.00;;;;4990518;27;83989;-65
2024/04/06 03:17:04;;;;;;;1.48;0.70;;;13.40;99.90;13.30;100492.00;;;;4988366;27;100789;-68
2024/04/06 03:19:29;;;;;;;0.60;0.47;;;13.30;99.90;13.30;100492.00;;;;4991320;27;83106;-65
2024/04/06 03:21:55;;;;;;;0.40;0.40;;;13.30;99.90;13.20;100492.00;;;;4989214;27;112558;-65
2024/04/06 03:24:21;;;;;;;0.30;0.30;;;13.20;99.90;13.20;100491.00;;;;4990590;27;82785;-67
2024/04/06 03:26:46;;;;;;;1.90;0.87;;;13.20;99.90;13.20;100495.00;;;;4992444;27;82862;-66
2024/04/06 03:29:13;;;;;;;1.00;0.90;;;13.60;99.90;13.10;100500.00;;;;4988734;27;112779;-66
2024/04/06 03:31:39;;;;;;;1.00;0.50;;;13.10;99.90;13.10;100496.00;;;;4989269;27;83029;-66
2024/04/06 03:34:05;;;;;;;1.08;0.55;;;13.10;99.90;13.10;100490.00;;;;4986028;27;100741;-65
2024/04/06 03:36:30;;;;;;;1.02;0.50;;;13.10;99.90;13.10;100488.00;;;;4990284;27;86494;-66
2024/04/06 03:38:56;;;;;;;0.30;0.30;;;13.10;99.90;13.10;100493.00;;;;4984896;27;84876;-66
2024/04/06 03:41:22;;;;;;;1.03;0.73;;;13.10;99.90;13.10;100490.00;;;;4987959;27;113308;-66
2024/04/06 03:43:48;;;;;;;0.43;0.43;;;13.20;99.90;13.20;100487.00;;;;4984939;27;109415;-65
2024/04/06 03:46:13;;;;;;;0.67;0.57;;;13.10;99.90;13.10;100486.00;;;;4988241;27;95347;-66
2024/04/06 03:48:40;;;;;;;1.77;0.70;;;13.20;99.90;13.20;100484.00;;;;4987542;27;113298;-66
2024/04/06 03:51:07;;;;;;;1.17;0.70;;;13.20;99.90;13.10;100490.00;;;;4985727;27;84173;-66
2024/04/06 03:53:36;;;;;;;0.90;0.47;;;13.20;99.90;13.10;100485.00;;;;4987315;27;96050;-66
2024/04/06 03:56:03;;;;;;;0.90;0.90;;;13.10;99.90;13.10;100488.00;;;;4988263;27;82413;-66
2024/04/06 03:58:29;;;;;;;0.80;0.73;;;13.20;99.90;13.10;100482.00;;;;4991526;27;82634;-66
2024/04/06 04:00:55;;;;;;;0.67;0.67;;;13.10;99.90;13.10;100486.00;;;;4987185;27;112211;-66
2024/04/06 04:03:21;;;;;;;0.23;0.23;;;13.10;99.90;13.10;100496.00;;;;4988241;27;83842;-66
2024/04/06 04:05:48;;;;;;;0.30;0.30;;;13.10;99.90;13.10;100494.00;;;;4987208;27;82812;-65
2024/04/06 04:08:14;;;;;;;1.37;0.77;;;13.50;99.90;13.20;100500.00;;;;4987375;27;83327;-66
2024/04/06 04:10:40;;;;;;;3.22;0.55;;;13.20;99.90;13.20;100500.00;;;;4989423;27;104081;-66
2024/04/06 04:13:12;;;;;;;0.70;0.60;;;13.20;99.90;13.20;100497.00;;;;4986616;27;109582;-65
2024/04/06 04:15:39;;;;;;;1.13;0.93;;;13.20;99.90;13.20;100507.00;;;;4984974;27;83092;-65
2024/04/06 04:18:05;;;;;;;1.20;1.10;;;13.20;99.90;13.20;100504.00;;;;4989634;27;83086;-65
2024/04/06 04:20:32;;;;;;;0.88;0.75;;;13.20;99.90;13.20;100505.00;;;;4990444;27;105165;-65
2024/04/06 04:23:00;;;;;;;1.90;0.93;;;13.20;99.90;13.20;100497.00;;;;4986548;27;83035;-65
2024/04/06 04:25:27;;;;;;;0.73;0.53;;;13.20;99.90;13.30;100510.00;;;;4986966;27;82899;-66
2024/04/06 04:27:54;;;;;;;0.60;0.60;;;13.30;99.90;13.30;100506.00;;;;4977893;27;84793;-66
2024/04/06 04:30:20;;;;;;;0.82;0.82;;;13.30;99.90;13.30;100515.00;;;;4970992;28;86734;-65
2024/04/06 04:32:46;;;;;;;0.33;0.33;;;13.30;99.90;13.30;100515.00;;;;4987888;27;99618;-65
2024/04/06 04:35:11;;;;;;;2.67;1.03;;;13.30;99.90;13.30;100513.00;;;;4977299;27;107443;-67
2024/04/06 04:37:38;;;;;;;0.60;0.60;;;13.30;99.90;13.30;100512.00;;;;4983977;27;102359;-66
2024/04/06 04:40:04;;;;;;;1.50;1.15;;;13.30;99.90;13.30;100516.00;;;;4986301;27;86720;-66
2024/04/06 04:42:30;;;;;;;0.63;0.63;;;13.30;99.90;13.30;100519.00;;;;4985990;27;103641;-66
2024/04/06 04:45:06;;;;;;;0.60;0.60;;;13.30;99.90;13.30;100522.00;;;;4987188;27;108678;-66
2024/04/06 04:47:32;;;;;;;0.73;0.73;;;13.30;99.90;13.30;100523.00;;;;4980358;27;82696;-66
2024/04/06 04:49:58;;;;;;;2.58;0.82;;;13.30;99.90;13.30;100524.00;;;;4986648;27;111233;-66
2024/04/06 04:52:23;;;;;;;1.55;0.60;;;13.30;99.90;13.30;100525.00;;;;4987732;27;95336;-65
2024/04/06 04:54:49;;;;;;;0.65;0.65;;;13.30;99.90;13.30;100528.00;;;;4983678;27;82882;-65
2024/04/06 04:57:15;;;;;;;0.75;0.75;;;13.30;99.90;13.30;100536.00;;;;4988413;27;111947;-66
2024/04/06 04:59:40;;;;;;;0.60;0.60;;;13.30;99.90;13.30;100536.00;;;;4984522;27;83395;-66
2024/04/06 05:02:06;;;;;;;0.73;0.52;;;13.30;99.90;13.30;100537.00;;;;4987533;27;82693;-67
2024/04/06 05:04:32;;;;;;;0.90;0.80;;;13.30;99.90;13.40;100521.00;;;;4986716;27;107629;-66
2024/04/06 05:06:57;;;;;;;1.42;0.80;;;13.30;99.90;13.40;100524.00;;;;4984459;27;112318;-66
2024/04/06 05:09:23;;;;;;;1.00;0.50;;;13.40;99.90;13.40;100528.00;;;;4985512;27;112317;-66
2024/04/06 05:11:49;;;;;;;1.13;0.80;;;13.40;99.90;13.30;100525.00;;;;4983557;27;110608;-65
2024/04/06 05:14:15;;;;;;;2.42;1.30;;;13.40;99.90;13.30;100531.00;;;;4970949;27;108304;-65
2024/04/06 05:16:42;;;;;;;1.00;0.80;;;13.30;99.90;13.30;100533.00;;;;4983177;27;85069;-66
2024/04/06 05:19:08;;;;;;;1.42;0.80;;;13.30;99.90;13.30;100536.00;;;;4983604;27;105170;-65
2024/04/06 05:21:34;;;;;;;1.37;0.73;;;13.30;99.90;13.40;100533.00;;;;4983761;27;100006;-66
2024/04/06 05:24:00;;;;;;;0.70;0.70;;;13.30;99.90;13.40;100534.00;;;;4984591;27;85598;-65
2024/04/06 05:26:26;;;;;;;2.23;1.07;;;13.40;99.90;13.40;100541.00;;;;4977181;27;113219;-65
2024/04/06 05:28:51;;;;;;;0.65;0.63;;;13.40;99.90;13.50;100537.00;;;;4982884;27;110371;-65
2024/04/06 05:31:17;;;;;;;1.07;0.70;;;13.50;99.90;13.60;100541.00;;;;4981486;27;110007;-67
2024/04/06 05:33:42;;;;;;;1.10;0.90;;;13.50;99.90;13.70;100545.00;;;;4983561;27;107958;-65
2024/04/06 05:36:09;;;;;;;1.10;1.00;;;13.60;99.90;13.80;100543.00;;;;4982011;27;111380;-66
2024/04/06 05:38:35;;;;;;;1.38;0.70;;;13.70;99.90;13.90;100552.00;;;;4982919;27;112175;-66
2024/04/06 05:41:00;;;;;;;1.45;1.00;;;13.80;99.90;14.00;100555.00;;;;4982193;27;110344;-65
2024/04/06 05:43:26;;;;;;;2.00;0.93;;;13.90;99.90;14.00;100555.00;;;;4983392;27;107436;-65
2024/04/06 05:46:04;;;;;;;1.48;1.30;;;13.70;99.90;14.10;100550.00;;;;4982498;27;93022;-65
2024/04/06 05:48:30;;;;;;;1.00;0.82;;;14.10;99.90;14.20;100567.00;;;;4964596;28;82977;-65
2024/04/06 05:50:58;;;;;;;2.80;0.95;;;14.10;99.90;14.20;100571.00;;;;4969841;28;83144;-65
2024/04/06 05:53:24;;;;;;;2.78;1.50;;;14.20;99.90;14.30;100576.00;;;;4971043;28;82609;-66
2024/04/06 05:55:50;;;;;;;0.85;0.63;;;14.30;99.90;14.40;100579.00;;;;4980969;27;104731;-66
2024/04/06 05:58:16;;;;;;;4.35;0.85;;;14.30;99.90;14.50;100580.00;;;;4977517;27;104068;-66
2024/04/06 06:00:41;;;;;;;4.43;1.05;;;14.40;99.90;14.70;100583.00;;;;4959312;28;82931;-66
2024/04/06 06:03:07;;;;;;;0.85;0.40;;;14.60;99.90;14.80;100582.00;;;;4975716;27;108540;-66
2024/04/06 06:05:33;;;;;;;0.85;0.85;;;14.70;99.90;14.90;100577.00;;;;4969467;27;113609;-66
2024/04/06 06:08:00;;;;;;;0.63;0.63;;;14.70;99.90;15.00;100577.00;;;;4961476;28;112942;-65
2024/04/06 06:10:25;;;;;;;1.13;0.90;;;14.90;99.90;15.10;100587.00;;;;4981525;27;82948;-66
2024/04/06 06:12:51;;;;;;;2.20;1.13;;;15.00;99.90;15.20;100582.00;;;;4982872;27;107085;-65
2024/04/06 06:15:17;;;;;;;1.50;1.02;;;15.10;99.90;15.20;100580.00;;;;4980914;27;83521;-65
2024/04/06 06:17:42;;;;;;;1.08;0.95;;;15.20;99.90;15.30;100576.00;;;;4984158;27;103319;-65
2024/04/06 06:20:09;;;;;;;0.68;0.68;;;15.20;99.90;15.50;100586.00;;;;4986157;27;109034;-66
2024/04/06 06:22:35;;;;;;;1.27;1.17;;;15.40;99.90;15.60;100590.00;;;;4965698;27;93360;-67
2024/04/06 06:25:00;;;;;;;0.52;0.52;;;15.50;99.90;15.90;100602.00;;;;4981228;27;83878;-66
2024/04/06 06:27:26;;;;;;;0.90;0.80;;;15.70;99.90;16.10;100598.00;;;;4966678;28;104295;-66
2024/04/06 06:29:52;;;;;;;1.05;0.70;;;15.90;99.90;16.30;100610.00;;;;4966149;28;110812;-66
2024/04/06 06:32:18;;;;;;;1.05;0.60;;;16.10;99.90;16.50;100611.00;;;;4988459;27;108888;-67
2024/04/06 06:34:44;;;;;;;0.45;0.45;;;16.30;99.90;16.60;100609.00;;;;4987533;27;83577;-66
2024/04/06 06:37:10;;;;;;;0.38;0.38;;;16.50;99.90;16.70;100619.00;;;;4983697;27;112725;-67
2024/04/06 06:39:36;;;;;;;0.50;0.50;;;16.60;99.90;16.90;100613.00;;;;4978373;27;84434;-66
2024/04/06 06:42:02;;;;;;;0.30;0.30;;;16.70;99.90;17.00;100613.00;;;;4971525;27;107427;-66
2024/04/06 06:44:28;;;;;;;0.40;0.40;;;16.80;99.90;17.10;100601.00;;;;4977152;27;105832;-66
2024/04/06 06:46:54;;;;;;;1.35;0.82;;;16.90;99.90;17.20;100608.00;;;;4983159;27;83669;-66
2024/04/06 06:49:20;;;;;;;0.38;0.38;;;16.70;99.90;17.20;100604.00;;;;4985774;27;82902;-67
2024/04/06 06:51:46;;;;;;;1.13;0.63;;;17.10;99.90;17.30;100603.00;;;;4987660;27;82979;-66
2024/04/06 06:54:12;;;;;;;2.17;0.90;;;17.20;99.90;17.30;100603.00;;;;4981289;27;108106;-67
2024/04/06 06:56:38;;;;;;;0.52;0.40;;;17.20;99.90;17.40;100606.00;;;;4971081;27;83431;-66
2024/04/06 06:59:04;;;;;;;0.20;0.20;;;17.30;99.90;17.50;100608.00;;;;4983334;27;83126;-66
2024/04/06 07:01:29;;;;;;;1.17;0.40;;;17.40;99.90;17.70;100615.00;;;;4985144;27;82753;-66
2024/04/06 07:03:56;;;;;;;0.98;0.45;;;17.60;99.90;18.00;100603.00;;;;4986250;27;104073;-66
2024/04/06 07:06:22;;;;;;;0.60;0.60;;;17.80;99.90;18.20;100594.00;;;;4967871;27;83715;-66
2024/04/06 07:08:48;;;;;;;0.90;0.77;;;18.00;99.90;18.50;100603.00;;;;4983265;27;82897;-66
2024/04/06 07:11:14;;;;;;;1.08;0.68;;;18.30;99.90;18.70;100609.00;;;;4985698;27;82124;-67
2024/04/06 07:13:39;;;;;;;1.15;0.68;;;18.50;99.90;18.90;100604.00;;;;4984935;27;98042;-66
2024/04/06 07:16:07;;;;;;;0.65;0.60;;;18.70;99.90;19.10;100606.00;;;;4986431;27;83699;-66
2024/04/06 07:18:35;;;;;;;0.47;0.40;;;19.00;99.90;19.30;100608.00;;;;4962628;27;106128;-66
2024/04/06 07:21:01;;;;;;;0.38;0.38;;;19.20;99.90;19.50;100615.00;;;;4985589;27;83903;-67
2024/04/06 07:23:27;;;;;;;0.50;0.50;;;19.40;99.90;19.70;100616.00;;;;4985883;27;109984;-66
2024/04/06 07:25:53;;;;;;;0.40;0.40;;;19.70;99.90;19.90;100625.00;;;;4982986;27;111721;-67
2024/04/06 07:28:19;;;;;;;1.52;0.57;;;19.70;99.90;20.10;100620.00;;;;4985192;27;92311;-67
2024/04/06 07:30:45;;;;;;;0.40;0.40;;;19.90;99.90;20.30;100632.00;;;;4986935;27;91521;-67
2024/04/06 07:33:11;;;;;;;1.65;0.93;;;20.20;99.90;20.60;100643.00;;;;4984238;27;104215;-67
2024/04/06 07:35:38;;;;;;;1.65;0.73;;;20.40;99.70;20.80;100644.00;;;;4982278;27;112060;-67
2024/04/06 07:38:04;;;;;;;5.28;0.63;;;20.60;99.30;20.90;100642.00;;;;4985963;27;82962;-66
2024/04/06 07:40:30;;;;;;;0.20;0.20;;;20.80;98.40;20.90;100636.00;;;;4978714;27;97149;-66
2024/04/06 07:42:56;;;;;;;0.30;0.25;;;20.80;97.20;21.00;100635.00;;;;4979078;27;111220;-66
2024/04/06 07:45:22;;;;;;;0.88;0.30;;;20.90;97.00;21.10;100647.00;;;;4986071;27;105372;-67
2024/04/06 07:47:48;;;;;;;0.47;0.40;;;21.00;96.70;21.10;100652.00;;;;4985290;27;97070;-66
2024/04/06 07:50:15;;;;;;;1.00;0.10;;;21.00;96.00;21.10;100652.00;;;;4985692;27;82826;-67
2024/04/06 07:52:41;;;;;;;3.13;0.50;;;21.10;95.40;21.20;100643.00;;;;4985016;27;83401;-66
2024/04/06 07:55:07;;;;;;;0.85;0.52;;;21.10;95.50;21.30;100655.00;;;;4983795;27;85293;-66
2024/04/06 07:57:32;;;;;;;2.58;0.60;;;21.20;95.10;21.50;100649.00;;;;4982970;27;82819;-67
2024/04/06 08:00:01;;;;;;;1.48;0.60;;;21.20;94.70;21.60;100645.00;;;;4984230;27;105348;-67
2024/04/06 08:02:28;;;;;;;2.33;0.38;;;21.50;94.60;21.70;100639.00;;;;4976946;27;84419;-67
2024/04/06 08:04:56;;;;;;;0.50;0.50;;;21.60;94.60;21.90;100640.00;;;;4984164;27;83455;-66
2024/04/06 08:07:25;;;;;;;0.95;0.65;;;21.80;94.40;22.10;100645.00;;;;4984929;27;83991;-66
2024/04/06 08:09:59;;;;;;;0.50;0.50;;;22.10;94.20;22.30;100641.00;;;;4985823;27;83874;-66
2024/04/06 08:12:26;;;;;;;1.08;0.80;;;22.20;93.90;22.50;100629.00;;;;4981426;27;83574;-67
2024/04/06 08:14:52;;;;;;;0.47;0.40;;;22.40;93.40;22.80;100621.00;;;;4985482;27;101324;-64
2024/04/06 08:17:17;;;;;;;0.17;0.17;;;22.60;92.70;22.90;100629.00;;;;4976924;27;110817;-65
2024/04/06 08:19:43;;;;;;;1.00;0.52;;;22.80;90.90;22.70;100621.00;;;;4983892;27;82733;-67
2024/04/06 08:22:09;;;;;;;1.00;0.30;;;22.80;89.80;22.70;100622.00;;;;4982578;27;112215;-66
2024/04/06 08:24:35;;;;;;;1.17;0.40;;;22.70;89.90;22.70;100622.00;;;;4984118;27;82087;-66
2024/04/06 08:27:01;;;;;;;0.40;0.28;;;22.70;89.00;22.70;100621.00;;;;4986411;27;103300;-66
2024/04/06 08:29:26;;;;;;;0.70;0.45;;;22.60;88.50;22.60;100626.00;;;;4981707;27;82764;-66
2024/04/06 08:31:52;;;;;;;0.57;0.47;;;22.60;88.80;22.50;100624.00;;;;4981334;27;113629;-66
2024/04/06 08:34:18;;;;;;;0.73;0.45;;;22.50;88.10;22.30;100625.00;;;;4979505;27;113506;-67
2024/04/06 08:36:43;;;;;;;0.75;0.32;;;22.30;88.00;22.00;100623.00;;;;4957356;28;111682;-67
2024/04/06 08:39:09;;;;;;;0.20;0.20;;;22.10;88.30;21.80;100630.00;;;;4983600;27;108075;-66
2024/04/06 08:41:36;;;;;;;1.75;0.43;;;21.90;88.70;21.70;100636.00;;;;4968577;27;113113;-66
2024/04/06 08:44:03;;;;;;;0.40;0.40;;;21.80;89.80;21.70;100647.00;;;;4977208;27;83940;-65
2024/04/06 08:46:29;;;;;;;0.15;0.15;;;21.70;90.00;21.80;100655.00;;;;4983838;27;104354;-65
2024/04/06 08:48:55;;;;;;;0.45;0.32;;;21.70;90.10;21.70;100654.00;;;;4971704;28;82156;-65
2024/04/06 08:51:25;;;;;;;2.28;0.40;;;21.70;90.00;21.70;100656.00;;;;4981368;27;113014;-65
2024/04/06 08:53:51;;;;;;;1.30;0.30;;;21.60;90.00;21.70;100652.00;;;;4984663;27;83127;-66
2024/04/06 08:56:17;;;;;;;0.40;0.40;;;21.60;90.00;21.80;100645.00;;;;4982746;28;111141;-66
2024/04/06 08:58:43;;;;;;;0.10;0.10;;;21.70;90.10;21.90;100650.00;;;;4983541;27;82886;-66
2024/04/06 09:01:11;;;;;;;1.33;0.30;;;21.70;89.90;22.00;100641.00;;;;4980655;27;83836;-66
2024/04/06 09:03:37;;;;;;;0.10;0.10;;;21.80;90.00;22.20;100644.00;;;;4975512;27;83988;-66
2024/04/06 09:06:03;;;;;;;0.13;0.13;;;21.90;89.40;22.30;100643.00;;;;4984936;27;107112;-65
2024/04/06 09:08:29;;;;;;;0.35;0.30;;;22.10;86.20;22.30;100636.00;;;;4973922;27;82627;-66
2024/04/06 09:10:57;;;;;;;0.75;0.40;;;22.20;85.40;22.20;100631.00;;;;4986359;28;82971;-64
2024/04/06 09:13:28;;;;;;;0.20;0.20;;;22.10;85.50;22.20;100633.00;;;;4983093;27;82746;-65
2024/04/06 09:15:54;;;;;;;0.30;0.20;;;22.00;85.00;22.30;100641.00;;;;4983339;27;84938;-65
2024/04/06 09:18:19;;;;;;;0.30;0.30;;;22.10;85.60;22.30;100640.00;;;;4981481;27;109148;-65
2024/04/06 09:20:51;;;;;;;0.80;0.35;;;22.20;85.20;22.30;100638.00;;;;4984036;28;114026;-66
2024/04/06 09:23:17;;;;;;;1.33;0.75;;;22.20;84.80;22.50;100642.00;;;;4982003;27;113876;-66
2024/04/06 09:25:43;;;;;;;3.35;0.25;;;22.30;85.40;22.70;100650.00;;;;4982188;27;82717;-65
2024/04/06 09:28:11;;;;;;;1.40;0.30;;;22.40;85.80;22.90;100637.00;;;;4980485;27;112992;-65
2024/04/06 09:30:42;;;;;;;0.10;0.10;;;22.60;84.60;23.20;100639.00;;;;4974886;27;83969;-64
2024/04/06 09:33:10;;;;;;;0.82;0.43;;;22.90;83.20;23.40;100634.00;;;;4985095;27;83413;-67
2024/04/06 09:35:39;;;;;;;1.60;0.30;;;23.10;82.70;23.70;100628.00;;;;4971767;27;84517;-66
2024/04/06 09:38:13;;;;;;;0.25;0.20;;;23.30;82.10;23.80;100630.00;;;;4964329;28;82193;-66
2024/04/06 09:40:43;;;;;;;0.50;0.30;;;23.50;80.50;23.90;100647.00;;;;4982749;27;84127;-67
2024/04/06 09:43:09;;;;;;;1.00;0.22;;;23.60;79.80;23.90;100643.00;;;;4980933;28;92042;-67
2024/04/06 09:45:36;;;;;;;0.70;0.28;;;23.70;79.70;24.10;100639.00;;;;4980665;27;103396;-67
2024/04/06 09:48:02;;;;;;;2.63;0.80;;;23.70;79.60;24.20;100630.00;;;;4984140;27;100989;-66
2024/04/06 09:50:32;;;;;;;0.20;0.20;;;23.90;78.30;24.40;100637.00;;;;4983787;27;82947;-66
2024/04/06 09:52:59;;;;;;;0.20;0.20;;;24.00;78.60;24.70;100637.00;;;;4984665;27;83608;-66
2024/04/06 09:55:27;;;;;;;0.82;0.30;;;24.30;77.20;24.80;100638.00;;;;4986412;27;82823;-67
2024/04/06 09:57:55;;;;;;;0.38;0.38;;;24.40;74.60;25.00;100631.00;;;;4970510;27;82844;-65
2024/04/06 10:00:21;;;;;;;0.20;0.20;;;24.60;74.10;25.10;100627.00;;;;4987615;27;83614;-66
2024/04/06 10:02:50;;;;;;;0.35;0.10;;;24.80;73.60;25.30;100627.00;;;;4986981;27;82686;-67
2024/04/06 10:05:16;;;;;;;0.40;0.20;;;24.90;72.30;25.40;100632.00;;;;4986634;27;82825;-65
2024/04/06 10:07:52;;;;;;;0.85;0.60;;;25.00;71.40;25.60;100636.00;;;;4986315;27;108879;-65
2024/04/06 10:10:18;;;;;;;0.80;0.30;;;25.20;71.40;25.80;100643.00;;;;4985036;27;84177;-66
2024/04/06 10:12:47;;;;;;;0.32;0.30;;;25.40;72.10;26.10;100652.00;;;;4983574;27;109762;-66
2024/04/06 10:15:19;;;;;;;0.73;0.30;;;25.60;71.20;26.40;100638.00;;;;4965625;27;82966;-67
2024/04/06 10:17:51;;;;;;;0.68;0.40;;;25.90;70.10;26.40;100626.00;;;;4967930;27;109490;-66
2024/04/06 10:20:24;;;;;;;0.73;0.10;;;26.00;65.80;26.30;100638.00;;;;4966221;27;106454;-67
2024/04/06 10:22:59;;;;;;;0.10;0.10;;;25.90;65.00;26.30;100643.00;;;;4956915;27;84428;-67
2024/04/06 10:25:36;;;;;;;0.52;0.45;;;25.90;65.20;26.30;100629.00;;;;4981788;27;82995;-65
2024/04/06 10:28:10;;;;;;;1.48;0.25;;;25.90;64.90;26.50;100622.00;;;;4985990;27;94653;-65
2024/04/06 10:30:39;;;;;;;2.00;0.73;;;26.00;65.60;26.60;100643.00;;;;4985854;27;83578;-66
2024/04/06 10:33:07;;;;;;;0.47;0.30;;;26.20;65.50;26.70;100653.00;;;;4987039;27;83734;-65
2024/04/06 10:35:33;;;;;;;0.25;0.25;;;26.30;64.30;26.70;100644.00;;;;4985175;27;84036;-65
2024/04/06 10:37:59;;;;;;;0.20;0.20;;;26.40;63.80;26.80;100636.00;;;;4975525;27;109148;-67
2024/04/06 10:40:27;;;;;;;1.35;0.50;;;26.40;64.10;26.90;100632.00;;;;4982608;27;112870;-67